createdAt,value
2023-02-13T00:01:24.406Z,5.53
2023-02-13T00:03:56.905Z,6.20
2023-02-13T00:06:23.659Z,7.07
2023-02-13T00:08:50.354Z,5.90
2023-02-13T00:11:16.918Z,5.57
2023-02-13T00:13:43.781Z,5.80
2023-02-13T00:16:10.735Z,6.13
2023-02-13T00:18:37.865Z,5.83
2023-02-13T00:21:07.047Z,5.83
2023-02-13T00:23:43.810Z,5.87
2023-02-13T00:26:12.739Z,5.37
2023-02-13T00:28:57.500Z,5.97
2023-02-13T00:34:08.058Z,5.07
2023-02-13T00:36:37.411Z,5.60
2023-02-13T00:39:14.677Z,6.33
2023-02-13T00:41:55.995Z,5.13
2023-02-13T00:44:22.586Z,5.60
2023-02-13T00:46:49.236Z,5.67
2023-02-13T00:49:27.204Z,5.60
2023-02-13T00:51:59.899Z,5.40
2023-02-13T00:54:36.396Z,5.23
2023-02-13T00:57:12.695Z,5.50
2023-02-13T00:59:52.605Z,4.83
2023-02-13T01:02:47.887Z,5.13
2023-02-13T01:05:14.569Z,5.73
2023-02-13T01:07:43.089Z,5.30
2023-02-13T01:10:09.932Z,5.20
2023-02-13T01:12:39.054Z,5.50
2023-02-13T01:15:05.913Z,5.27
2023-02-13T01:17:32.547Z,5.10
2023-02-13T01:20:00.314Z,5.50
2023-02-13T01:22:26.923Z,5.70
2023-02-13T01:24:53.519Z,5.50
2023-02-13T01:27:33.600Z,5.37
2023-02-13T01:30:07.434Z,5.53
2023-02-13T01:32:34.061Z,5.67
2023-02-13T01:35:00.577Z,5.13
2023-02-13T01:37:34.495Z,5.07
2023-02-13T01:40:01.111Z,5.27
2023-02-13T01:42:29.741Z,5.40
2023-02-13T01:45:25.435Z,5.03
2023-02-13T01:48:10.268Z,5.30
2023-02-13T01:51:21.790Z,4.90
2023-02-13T01:54:20.168Z,4.73
2023-02-13T01:56:51.832Z,4.80
2023-02-13T01:59:32.425Z,4.97
2023-02-13T02:01:59.210Z,5.10
2023-02-13T02:04:28.641Z,5.17
2023-02-13T02:06:58.432Z,5.10
2023-02-13T02:09:34.403Z,4.50
2023-02-13T02:12:09.660Z,4.63
2023-02-13T02:14:41.047Z,4.53
2023-02-13T02:17:16.950Z,4.63
2023-02-13T02:19:55.795Z,4.80
2023-02-13T02:23:08.246Z,4.60
2023-02-13T02:26:16.419Z,4.70
2023-02-13T02:29:04.837Z,4.90
2023-02-13T02:31:56.219Z,4.77
2023-02-13T02:35:00.862Z,4.77
2023-02-13T02:37:48.951Z,4.53
2023-02-13T02:40:25.468Z,5.13
2023-02-13T02:43:16.795Z,5.07
2023-02-13T02:46:27.855Z,5.10
2023-02-13T02:49:50.350Z,5.23
2023-02-13T02:52:20.333Z,4.40
2023-02-13T02:55:19.951Z,4.70
2023-02-13T02:58:36.179Z,5.00
2023-02-13T03:01:23.801Z,4.40
2023-02-13T03:04:09.061Z,3.97
2023-02-13T03:06:43.534Z,4.30
2023-02-13T03:09:53.902Z,4.37
2023-02-13T03:12:43.962Z,4.77
2023-02-13T03:15:18.231Z,4.17
2023-02-13T03:18:06.955Z,4.50
2023-02-13T03:20:59.737Z,4.70
2023-02-13T03:23:35.388Z,4.67
2023-02-13T03:26:46.197Z,4.70
2023-02-13T03:29:42.972Z,3.90
2023-02-13T03:32:27.369Z,4.77
2023-02-13T03:35:32.174Z,4.00
2023-02-13T03:38:02.171Z,4.50
2023-02-13T03:44:34.415Z,4.60
2023-02-13T03:47:30.562Z,4.60
2023-02-13T03:53:11.439Z,3.97
2023-02-13T03:55:59.241Z,3.70
2023-02-13T03:58:53.592Z,4.17
2023-02-13T04:01:33.812Z,4.30
2023-02-13T04:06:56.612Z,4.00
2023-02-13T04:12:20.859Z,4.60
2023-02-13T04:14:57.904Z,3.90
2023-02-13T04:17:27.546Z,4.30
2023-02-13T04:19:58.556Z,3.93
2023-02-13T04:22:38.480Z,3.87
2023-02-13T04:25:10.443Z,3.80
2023-02-13T04:27:55.087Z,3.77
2023-02-13T04:30:26.165Z,3.87
2023-02-13T04:33:03.192Z,4.10
2023-02-13T04:35:38.748Z,3.57
2023-02-13T04:38:36.032Z,3.93
2023-02-13T04:41:02.991Z,4.27
2023-02-13T04:43:55.223Z,4.20
2023-02-13T04:46:24.039Z,3.93
2023-02-13T04:49:11.284Z,4.10
2023-02-13T04:51:55.068Z,4.33
2023-02-13T04:54:28.407Z,4.43
2023-02-13T04:57:00.524Z,3.60
2023-02-13T05:02:12.962Z,3.90
2023-02-13T05:04:42.065Z,3.77
2023-02-13T05:07:13.590Z,3.83
2023-02-13T05:09:43.314Z,4.03
2023-02-13T05:12:12.363Z,4.20
2023-02-13T05:14:42.492Z,4.20
2023-02-13T05:17:09.345Z,4.37
2023-02-13T05:19:38.135Z,4.30
2023-02-13T05:22:39.719Z,3.87
2023-02-13T05:25:06.390Z,4.53
2023-02-13T05:33:04.000Z,4.23
2023-02-13T05:35:30.841Z,4.50
2023-02-13T05:38:04.709Z,3.70
2023-02-13T05:40:31.719Z,4.03
2023-02-13T05:43:10.959Z,3.90
2023-02-13T05:45:37.822Z,3.80
2023-02-13T05:48:05.072Z,4.03
2023-02-13T05:50:46.316Z,4.00
2023-02-13T05:53:12.956Z,3.97
2023-02-13T05:55:44.463Z,3.97
2023-02-13T05:58:11.995Z,4.40
2023-02-13T06:00:38.674Z,3.50
2023-02-13T06:03:05.267Z,3.60
2023-02-13T06:05:31.800Z,4.17
2023-02-13T06:07:58.394Z,6.73
2023-02-13T06:10:24.896Z,8.37
2023-02-13T06:12:51.534Z,8.10
2023-02-13T06:15:18.160Z,10.33
2023-02-13T06:17:44.691Z,10.33
2023-02-13T06:20:11.524Z,8.87
2023-02-13T06:22:38.054Z,9.17
2023-02-13T06:25:04.927Z,9.27
2023-02-13T06:27:31.613Z,8.20
2023-02-13T06:29:58.224Z,8.20
2023-02-13T06:32:24.948Z,7.50
2023-02-13T06:34:51.528Z,9.27
2023-02-13T06:37:18.090Z,10.63
2023-02-13T06:39:45.397Z,12.40
2023-02-13T06:42:12.000Z,9.77
2023-02-13T06:44:38.643Z,12.30
2023-02-13T06:47:05.146Z,9.77
2023-02-13T06:49:32.696Z,9.20
2023-02-13T06:52:06.750Z,8.83
2023-02-13T06:57:15.706Z,8.20
2023-02-13T06:59:42.676Z,8.43
2023-02-13T07:02:11.182Z,7.47
2023-02-13T07:04:37.784Z,8.50
2023-02-13T08:33:28.134Z,9.20
2023-02-13T08:35:55.319Z,10.97
2023-02-13T08:38:22.117Z,11.80
2023-02-13T08:46:12.103Z,14.73
2023-02-13T08:48:38.727Z,8.87
2023-02-13T08:51:09.395Z,8.30
2023-02-13T08:53:36.277Z,8.30
2023-02-13T08:56:02.952Z,8.47
2023-02-13T08:58:29.741Z,7.87
2023-02-13T09:00:56.424Z,7.63
2023-02-13T09:03:23.077Z,6.87
2023-02-13T09:05:49.736Z,7.70
2023-02-13T09:08:17.904Z,7.30
2023-02-13T09:10:45.382Z,5.77
2023-02-13T09:13:12.115Z,6.33
2023-02-13T09:15:40.557Z,4.83
2023-02-13T09:18:07.735Z,5.13
2023-02-13T09:20:35.799Z,5.10
2023-02-13T09:23:02.712Z,4.90
2023-02-13T09:25:29.286Z,6.80
2023-02-13T09:27:55.818Z,4.57
2023-02-13T09:30:25.613Z,5.80
2023-02-13T09:32:53.089Z,4.87
2023-02-13T09:35:20.043Z,4.90
2023-02-13T09:37:46.887Z,4.20
2023-02-13T09:40:21.067Z,5.07
2023-02-13T09:42:47.623Z,4.50
2023-02-13T09:45:14.152Z,4.43
2023-02-13T09:47:42.080Z,4.53
2023-02-13T09:50:12.785Z,4.00
2023-02-13T09:52:39.578Z,4.07
2023-02-13T09:55:16.925Z,3.70
2023-02-13T09:57:47.519Z,3.70
2023-02-13T10:00:23.313Z,3.93
2023-02-13T10:03:01.296Z,4.00
2023-02-13T10:55:17.165Z,2.87
2023-02-13T10:58:08.238Z,2.93
2023-02-13T11:32:19.490Z,3.00
2023-02-13T11:34:46.299Z,2.87
2023-02-13T11:37:12.751Z,3.13
2023-02-13T11:39:41.194Z,3.20
2023-02-13T11:42:19.730Z,3.00
2023-02-13T11:44:50.704Z,3.30
2023-02-13T11:47:17.312Z,3.00
2023-02-13T11:49:47.433Z,3.43
2023-02-13T11:52:23.926Z,2.97
2023-02-13T11:55:03.353Z,2.70
2023-02-13T11:57:34.832Z,3.23
2023-02-13T12:00:20.663Z,2.70
2023-02-13T12:36:46.039Z,2.90
2023-02-13T12:39:21.476Z,3.00
2023-02-13T12:42:33.240Z,3.10
2023-02-13T12:45:05.580Z,3.30
2023-02-13T12:47:42.243Z,2.90
2023-02-13T12:50:23.916Z,2.83
2023-02-13T12:53:03.128Z,3.17
2023-02-13T12:55:29.601Z,3.30
2023-02-13T12:58:37.890Z,3.03
2023-02-13T13:01:08.988Z,3.63
2023-02-13T13:03:37.546Z,3.83
2023-02-13T13:06:40.278Z,3.67
2023-02-13T13:09:34.144Z,5.73
2023-02-13T13:12:36.032Z,4.13
2023-02-13T13:15:31.668Z,4.07
2023-02-13T13:18:12.766Z,3.73
2023-02-13T13:20:59.769Z,4.13
2023-02-13T13:23:34.870Z,3.90
2023-02-13T13:26:10.046Z,4.37
2023-02-13T13:28:41.867Z,3.77
2023-02-13T13:32:07.684Z,3.87
2023-02-13T14:11:41.319Z,14.23
2023-02-13T14:14:46.453Z,15.63
2023-02-13T14:17:37.892Z,16.77
2023-02-13T14:20:45.887Z,13.57
2023-02-13T14:23:27.715Z,14.50
2023-02-13T14:26:16.402Z,15.87
2023-02-13T14:28:51.940Z,14.13
2023-02-13T14:31:38.641Z,17.00
2023-02-13T14:34:32.442Z,11.90
2023-02-13T14:37:39.766Z,13.47
2023-02-13T14:40:27.021Z,15.63
2023-02-13T14:50:03.399Z,10.77
2023-02-13T14:52:33.310Z,12.27
2023-02-13T14:55:03.163Z,10.80
2023-02-13T14:57:34.573Z,13.33
2023-02-13T15:00:32.017Z,14.30
2023-02-13T15:03:04.564Z,10.53
2023-02-13T15:05:35.036Z,11.60
2023-02-13T15:08:15.600Z,10.43
2023-02-13T15:10:57.121Z,10.83
2023-02-13T15:13:31.865Z,10.53
2023-02-13T15:16:10.111Z,11.37
2023-02-13T15:18:42.737Z,9.67
2023-02-13T15:21:14.759Z,9.13
2023-02-13T15:23:59.329Z,11.77
2023-02-13T15:26:29.688Z,12.20
2023-02-13T15:29:03.726Z,8.17
2023-02-13T15:34:30.388Z,7.73
2023-02-13T15:36:57.079Z,10.07
2023-02-13T15:39:28.934Z,7.80
2023-02-13T15:41:58.257Z,8.70
2023-02-13T15:44:31.625Z,7.73
2023-02-13T15:47:04.258Z,7.43
2023-02-13T15:49:57.611Z,8.97
2023-02-13T15:52:30.365Z,7.83
2023-02-13T15:55:22.037Z,8.27
2023-02-13T15:57:48.745Z,6.33
2023-02-13T16:00:39.654Z,7.07
2023-02-13T16:03:10.724Z,7.33
2023-02-13T16:05:43.196Z,6.33
2023-02-13T16:08:33.315Z,7.30
2023-02-13T16:11:18.756Z,7.63
2023-02-13T16:13:58.526Z,9.17
2023-02-13T16:16:50.494Z,7.27
2023-02-13T16:19:52.412Z,7.63
2023-02-13T16:22:41.190Z,8.93
2023-02-13T16:25:21.883Z,7.33
2023-02-13T16:27:52.229Z,8.40
2023-02-13T16:30:51.977Z,6.20
2023-02-13T16:33:24.220Z,7.13
2023-02-13T16:35:55.395Z,8.20
2023-02-13T16:38:30.907Z,6.27
2023-02-13T16:41:28.540Z,7.63
2023-02-13T16:43:56.151Z,7.57
2023-02-13T16:46:24.950Z,7.27
2023-02-13T16:48:57.783Z,8.33
2023-02-13T16:51:47.340Z,7.07
2023-02-13T16:54:18.545Z,7.17
2023-02-13T16:56:54.331Z,6.23
2023-02-13T16:59:28.492Z,5.30
2023-02-13T17:02:17.644Z,6.93
2023-02-13T17:04:50.792Z,7.13
2023-02-13T17:07:21.318Z,6.40
2023-02-13T17:09:52.440Z,7.57
2023-02-13T17:12:19.210Z,7.37
2023-02-13T17:14:46.100Z,7.07
2023-02-13T17:17:17.676Z,7.87
2023-02-13T17:19:44.397Z,12.47
2023-02-13T17:22:18.405Z,13.03
2023-02-13T17:24:44.916Z,13.87
2023-02-13T17:27:11.686Z,11.63
2023-02-13T17:29:38.337Z,12.40
2023-02-13T17:32:05.092Z,9.87
2023-02-13T17:34:31.661Z,10.43
2023-02-13T17:36:58.324Z,10.70
2023-02-13T17:39:24.877Z,10.03
2023-02-13T17:41:51.415Z,10.67
2023-02-13T17:44:17.931Z,10.63
2023-02-13T17:46:44.424Z,10.40
2023-02-13T17:49:12.385Z,9.27
2023-02-13T17:51:39.143Z,10.97
2023-02-13T17:54:05.714Z,7.87
2023-02-13T17:56:32.394Z,7.70
2023-02-13T17:58:58.984Z,8.17
2023-02-13T18:01:25.600Z,7.87
2023-02-13T18:03:52.219Z,8.70
2023-02-13T18:06:18.806Z,6.60
2023-02-13T18:08:45.329Z,8.27
2023-02-13T18:11:12.137Z,7.07
2023-02-13T18:13:40.793Z,6.47
2023-02-13T18:16:08.524Z,7.17
2023-02-13T18:18:35.053Z,7.87
2023-02-13T18:21:01.844Z,6.97
2023-02-13T18:23:28.374Z,6.13
2023-02-13T18:26:06.811Z,6.40
2023-02-13T18:28:33.343Z,4.70
2023-02-13T18:31:00.402Z,3.97
2023-02-13T18:33:27.329Z,3.90
2023-02-13T18:36:00.071Z,3.80
2023-02-13T18:38:26.692Z,6.10
2023-02-13T18:40:53.256Z,5.03
2023-02-13T18:43:21.934Z,5.50
2023-02-13T18:45:48.591Z,5.87
2023-02-13T18:48:15.135Z,5.13
2023-02-13T18:50:44.774Z,6.23
2023-02-13T18:53:11.535Z,10.00
2023-02-13T18:55:38.259Z,6.23
2023-02-13T18:58:04.907Z,7.43
2023-02-13T19:00:31.659Z,5.97
2023-02-13T19:02:58.787Z,6.93
2023-02-13T19:05:25.572Z,4.97
2023-02-13T19:07:52.180Z,5.40
2023-02-13T19:10:18.869Z,7.87
2023-02-13T19:12:45.508Z,5.47
2023-02-13T19:15:12.113Z,4.17
2023-02-13T19:17:38.883Z,6.83
2023-02-13T19:20:06.150Z,3.87
2023-02-13T19:22:32.957Z,4.87
2023-02-13T19:24:59.592Z,14.10
2023-02-13T19:27:26.126Z,17.93
2023-02-13T19:29:52.675Z,15.27
2023-02-13T19:32:19.569Z,18.47
2023-02-13T19:34:46.967Z,18.97
2023-02-13T19:37:13.494Z,21.53
2023-02-13T19:39:40.146Z,15.10
2023-02-13T19:42:06.724Z,16.40
2023-02-13T19:44:33.266Z,14.00
2023-02-13T19:46:59.832Z,12.37
2023-02-13T19:49:26.378Z,14.53
2023-02-13T19:51:53.007Z,14.20
2023-02-13T19:54:19.634Z,11.13
2023-02-13T19:56:47.546Z,11.77
2023-02-13T19:59:14.201Z,9.93
2023-02-13T20:01:45.709Z,13.10
2023-02-13T20:04:12.531Z,14.33
2023-02-13T20:06:39.261Z,10.90
2023-02-13T20:09:08.848Z,13.97
2023-02-13T20:11:35.568Z,18.53
2023-02-13T20:14:04.035Z,16.67
2023-02-13T20:16:33.128Z,17.10
2023-02-13T20:19:05.947Z,14.37
2023-02-13T20:21:34.289Z,19.77
2023-02-13T20:24:03.106Z,12.30
2023-02-13T20:26:31.180Z,14.57
2023-02-13T20:29:02.894Z,21.27
2023-02-13T20:31:43.914Z,18.63
2023-02-13T20:34:10.985Z,11.37
2023-02-13T20:36:39.037Z,9.90
2023-02-13T20:39:08.756Z,12.57
2023-02-13T20:41:45.505Z,13.70
2023-02-13T20:44:26.230Z,11.63
2023-02-13T20:47:01.104Z,11.07
2023-02-13T20:49:30.315Z,10.40
2023-02-13T20:52:11.851Z,6.87
2023-02-13T20:54:44.271Z,10.50
2023-02-13T20:57:24.127Z,13.20
2023-02-13T20:59:53.770Z,9.50
2023-02-13T21:02:37.254Z,13.27
2023-02-13T21:05:11.507Z,7.10
2023-02-13T21:07:53.175Z,9.90
2023-02-13T21:10:21.829Z,9.33
2023-02-13T21:12:54.676Z,11.00
2023-02-13T21:15:36.566Z,7.90
2023-02-13T21:18:04.174Z,7.73
2023-02-13T21:20:35.289Z,6.53
2023-02-13T21:23:12.085Z,11.23
2023-02-13T21:26:11.919Z,7.57
2023-02-13T21:28:53.383Z,12.23
2023-02-13T21:31:23.856Z,9.77
2023-02-13T21:33:53.219Z,6.83
2023-02-13T21:36:21.804Z,5.83
2023-02-13T21:39:16.874Z,7.43
2023-02-13T21:41:46.152Z,5.30
2023-02-13T21:44:32.009Z,7.00
2023-02-13T21:47:07.186Z,5.03
2023-02-13T21:49:36.446Z,6.30
2023-02-13T21:52:06.309Z,5.20
2023-02-13T21:54:42.197Z,8.33
2023-02-13T21:57:12.933Z,5.33
2023-02-13T21:59:41.444Z,5.97
2023-02-13T22:02:28.599Z,6.93
2023-02-13T22:04:56.817Z,7.03
2023-02-13T22:07:33.227Z,5.80
2023-02-13T22:09:59.857Z,6.33
2023-02-13T22:12:43.093Z,8.10
2023-02-13T22:18:08.913Z,5.87
2023-02-13T22:20:35.864Z,4.77
2023-02-13T22:23:09.096Z,5.00
2023-02-13T22:25:43.654Z,6.50
2023-02-13T22:28:16.864Z,6.60
2023-02-13T22:30:45.515Z,4.63
2023-02-13T22:33:14.754Z,5.27
2023-02-13T22:35:50.167Z,6.63
2023-02-13T22:38:17.153Z,7.37
2023-02-13T22:40:50.933Z,6.37
2023-02-13T22:43:20.905Z,8.07
2023-02-13T22:45:53.722Z,5.30
2023-02-13T22:48:32.543Z,4.53
2023-02-13T22:51:18.427Z,5.57
2023-02-13T22:53:48.504Z,7.10
2023-02-13T22:56:37.275Z,3.80
2023-02-13T22:59:11.891Z,4.90
2023-02-13T23:01:43.783Z,4.80
2023-02-13T23:04:13.046Z,5.70
2023-02-13T23:06:46.030Z,4.00
2023-02-13T23:09:22.353Z,6.27
2023-02-13T23:12:11.187Z,4.30
2023-02-13T23:14:44.925Z,5.43
2023-02-13T23:17:35.956Z,4.67
2023-02-13T23:20:06.667Z,5.40
2023-02-13T23:22:35.885Z,4.57
2023-02-13T23:25:08.315Z,4.40
2023-02-13T23:27:38.184Z,4.03
2023-02-13T23:30:22.488Z,5.47
2023-02-13T23:32:51.186Z,4.80
2023-02-13T23:35:36.148Z,6.03
2023-02-13T23:38:14.552Z,5.13
2023-02-13T23:41:01.332Z,4.60
2023-02-13T23:43:35.636Z,4.37
2023-02-13T23:46:28.925Z,3.93
2023-02-13T23:49:05.569Z,4.70
2023-02-13T23:51:44.656Z,4.70
2023-02-13T23:54:30.626Z,4.00
2023-02-13T23:57:05.357Z,4.20
2023-02-13T23:59:32.306Z,4.03
